LPPD/PDL METAR and TAF weather

Enter ICAO airport designator
Station Type Date Time Source
LPPD METAR 2019/06/17 04:30 UTC NOAA

LPPD 170430Z 30018G28KT 9999 FEW014 FEW016TCU 17/14 Q1002


Station Type Date Time Source
LPPD Decoded METAR 2019/06/17 04:30 UTC NOAA

Ponta Delgada / Nordela Acores , Portugal (LPPD) 37-44N 025-42W 72M
Jun 17, 2019 - 12:30 AM EDT / 2019.06.17 0430 UTC
Wind: from the WNW (300 degrees) at 21 MPH (18 KT) gusting to 32 MPH (28 KT):0
Visibility: greater than 7 mile(s):0
Sky conditions: mostly clear
Weather: Towering cumulus clouds observed
Temperature: 62 F (17 C)
Dew Point: 57 F (14 C)
Relative Humidity: 82%
Pressure (altimeter): 29.59 in. Hg (1002 hPa)
ob: LPPD 170430Z 30018G28KT 9999 FEW014 FEW016TCU 17/14 Q1002
cycle: 4

Station Type Date Time Source
LPPD TAF 2019/06/17 03:07 UTC NOAA

TAF
AMD LPPD 170305Z 1703/1724 28022G35KT 9999 SCT018 SCT030
TEMPO 1703/1718 5000 SHRA BKN012 FEW020CB
TEMPO 1703/1706 28032G42KT
BECMG 1706/1708 30018KT
BECMG 1710/1713 34013KT

Example: see airport list